Terminal Aerodrome Forecast
Issued by NWS Quad Cities IA IL

Home | Current Version | Previous Version | Text Only | Print | Product List | Glossary Off
Versions: 1 2 3 4 5 6 7 8 9 10 11 12 13 14 15 16 17 18 19 20 21

000
FTUS43 KDVN 200520
TAFDBQ
TAF
KDBQ 200520Z 2006/2106 13011KT P6SM SCT120 WS020/20035KT
     FM201300 18013G18KT P6SM BKN100
     FM201800 20013G18KT P6SM BKN090
     FM202100 23011KT P6SM VCTS BKN070CB
     FM202300 36009KT P6SM BKN050 PROB30 2023/2104 4SM -TSRA
      BKN040CB=

USA.gov is the U.S. government's official web portal to all federal, state and local government web resources and services.